Details From SBIZ - Prefeito Renato Moreira
To SBSL - Marechal Cunha Machado
Flight Number -
Tags generated
Created
Modified
Stats Distance 263 nm / 487 km
Max Altitude 23,500 ft / 7,163 m
Waypoints 4
Social Downloads 1
Likes 0
Share VATSIM

Download

Looking for another format? Having issues loading an existing format? Contact us
Advertisement - Login to hide

Notes

Basic altitude profile: - Ascent Rate: 2500ft/min - Ascent Speed: 250kts - Cruise Altitude: 35000ft - Cruise Speed: 447kts - Descent Rate: 1800ft/min - Descent Speed: 250kts Options: - Use NATs: yes - Use PACOTS: yes - Use low airways: no - Use high airways: yes

Route

SBIZ YTZ UL540 RIXOM SBSL

ID Type Via Altitude Latitude Longitude Leg Dist Tot Dist Heading (true) Name
O SBIZ APT - 0 ft / 0 m -5.53129˚ -47.46005˚ - 0 nm - Prefeito Renato Moreira
YTZ VOR - 200 ft / 61 m -5.52383˚ -47.44983˚ 0 nm 0 nm 54° / 54° IMPERATRIZ VOR-DME
RIXOM FIX UL540 (AWY-HI) 23,500 ft / 7,163 m -3.60567˚ -45.07883˚ 182 nm 183 nm 51° / 51° -
O SBSL APT - 0 ft / 0 m -2.58731˚ -44.23638˚ 79 nm 262 nm 40° / 40° Marechal Cunha Machado

Altitude Profile

Advertisement - Login to hide

Weather


0- 5 10 15 20 25 30 35+ Temperature / ° C

Clouds and Precipitation
Forecast for 2018-05-24 06:00 UTC. Updated 4 hours ago

Ground ~20,000 ft ~40,000 ft Winds

SBIZ

Details ICAO SBIZ (IMP)
Name Prefeito Renato Moreira
Region Brazil
Timezone America/Fortaleza (UTC-3.0)
Stats Elevation 431 ft / 131 m (AMSL)
Location -5.531290° -47.460048°
Runways 1
Magnetic Variation 21.003° W

METAR

SBIZ 240800Z 00000KT 9999 FEW017 SCT100 23/23 Q1014

Decode

TAF

TAF SBIZ 240400Z 2406/2418 00000KT 9999 FEW015 TN24/2407Z TX31/2417Z BECMG 2410/2412 04005KT BECMG 2415/2417 07005KT SCT025 FEW030TCU RMK PCQ

Decode

Departure Runways

ID Width Length Bearing (true) Bearing (mag) Surface Threshold Offset Overrun Length
07 148 ft / 45 m 5,932 ft / 1,808 m 53.74° 74.74° Asphalt 0 ft / 0 m 200 ft / 61 m
25 148 ft / 45 m 5,932 ft / 1,808 m 233.74° 254.74° Asphalt 0 ft / 0 m 200 ft / 61 m

SBSL

Details ICAO SBSL (SLZ)
Name Marechal Cunha Machado
Region Brazil
Timezone America/Fortaleza (UTC-3.0)
Stats Elevation 178 ft / 54 m (AMSL)
Location -2.587308° -44.236384°
Runways 2
Magnetic Variation 20.914° W

METAR

SBSL 240800Z 06005KT 9999 FEW017 26/25 Q1013

Decode

TAF

TAF SBSL 240400Z 2406/2506 06005KT 9999 FEW017 TN23/2407Z TX30/2416Z BECMG 2410/2412 09008KT BECMG 2415/2417 05010KT SCT020 FEW025TCU PROB30 TEMPO 2417/2420 5000 RA BECMG 2422/2424 07005KT FEW017 RMK PCQ

Decode

Destination Runways

ID Width Length Bearing (true) Bearing (mag) Surface Threshold Offset Overrun Length
06 148 ft / 45 m 7,902 ft / 2,409 m 38.74° 59.65° Asphalt 0 ft / 0 m 197 ft / 60 m
09 135 ft / 41 m 4,867 ft / 1,483 m 68.93° 89.84° Asphalt 270 ft / 82 m 185 ft / 56 m
24 148 ft / 45 m 7,902 ft / 2,409 m 218.74° 239.65° Asphalt 0 ft / 0 m 197 ft / 60 m
27 135 ft / 41 m 4,867 ft / 1,483 m 248.93° 269.84° Asphalt 0 ft / 0 m 200 ft / 61 m

Popular Alternatives